Time;durP1;ratioP1;P1;durP2;ratioP2;P2;SDS_P1;SDS_P2;PMS_P1;PMS_P2;Temp;Humidity;BMP_temperature;BMP_pressure;BME280_temperature;BME280_humidity;BME280_pressure;Samples;Min_cycle;Max_cycle;Signal;HPM_P1;HPM_P2
2023/11/27 00:01:08;;;;;;;6.37;4.30;;;4.00;83.70;;;;;;5021090;28;20521;-77
2023/11/27 00:03:34;;;;;;;7.47;4.17;;;4.00;83.60;;;;;;5025082;28;20272;-77
2023/11/27 00:06:00;;;;;;;9.23;4.83;;;4.00;83.40;;;;;;5024433;28;20792;-76
2023/11/27 00:08:26;;;;;;;9.40;4.60;;;4.00;83.60;;;;;;5023747;28;20428;-77
2023/11/27 00:10:51;;;;;;;6.33;4.80;;;3.90;83.60;;;;;;5022521;28;20569;-77
2023/11/27 00:13:17;;;;;;;10.13;5.17;;;3.90;83.80;;;;;;5028920;28;20239;-78
2023/11/27 00:15:42;;;;;;;8.87;5.00;;;3.90;83.80;;;;;;5025536;28;20177;-76
2023/11/27 00:18:09;;;;;;;14.47;4.77;;;3.90;84.10;;;;;;5028664;28;20213;-77
2023/11/27 00:20:35;;;;;;;8.90;5.20;;;4.00;84.00;;;;;;5019061;28;20717;-76
2023/11/27 00:23:00;;;;;;;8.17;4.93;;;4.00;83.80;;;;;;5023482;28;20428;-75
2023/11/27 00:25:26;;;;;;;12.73;5.17;;;3.80;83.60;;;;;;5022815;28;20552;-76
2023/11/27 00:27:51;;;;;;;9.93;4.87;;;3.80;83.80;;;;;;5028678;28;20196;-76
2023/11/27 00:30:17;;;;;;;7.27;4.27;;;3.80;84.00;;;;;;5023248;28;20229;-76
2023/11/27 00:32:43;;;;;;;8.80;4.57;;;3.70;84.00;;;;;;5022180;28;20643;-75
2023/11/27 00:35:08;;;;;;;8.03;4.73;;;3.60;84.10;;;;;;5018450;28;20196;-75
2023/11/27 00:37:34;;;;;;;7.70;5.20;;;3.60;84.60;;;;;;5024793;28;20213;-76
2023/11/27 00:40:00;;;;;;;8.03;4.27;;;3.60;84.70;;;;;;5017768;28;20266;-78
2023/11/27 00:42:25;;;;;;;8.97;5.33;;;3.60;84.70;;;;;;5025828;28;20189;-76
2023/11/27 00:44:51;;;;;;;10.97;5.63;;;3.50;84.70;;;;;;5023885;28;20189;-76
2023/11/27 00:47:17;;;;;;;10.27;5.37;;;3.50;84.70;;;;;;5026537;28;20192;-77
2023/11/27 00:49:43;;;;;;;7.83;4.57;;;3.50;84.70;;;;;;5021354;28;20204;-78
2023/11/27 00:52:08;;;;;;;7.83;5.00;;;3.40;84.90;;;;;;5023104;28;20439;-77
2023/11/27 00:54:34;;;;;;;11.57;4.93;;;3.50;85.20;;;;;;5021214;28;20212;-77
2023/11/27 00:57:00;;;;;;;19.33;5.83;;;3.60;85.30;;;;;;5020993;28;20582;-76
2023/11/27 00:59:26;;;;;;;8.43;4.50;;;3.50;84.90;;;;;;5022922;28;20320;-75
2023/11/27 01:01:51;;;;;;;7.57;4.80;;;3.50;84.70;;;;;;5020250;28;21021;-76
2023/11/27 01:04:17;;;;;;;11.00;5.20;;;3.50;84.60;;;;;;5026455;28;20182;-76
2023/11/27 01:06:43;;;;;;;9.87;4.63;;;3.50;84.70;;;;;;5022225;28;20273;-76
2023/11/27 01:09:09;;;;;;;8.40;5.07;;;3.50;84.90;;;;;;5025301;28;20665;-75
2023/11/27 01:11:34;;;;;;;6.87;4.87;;;3.50;84.70;;;;;;5022326;28;20491;-76
2023/11/27 01:14:00;;;;;;;10.23;4.70;;;3.40;84.70;;;;;;5029759;28;20200;-76
2023/11/27 01:16:26;;;;;;;7.03;4.00;;;3.40;85.00;;;;;;5022681;28;20217;-77
2023/11/27 01:18:52;;;;;;;7.97;5.10;;;3.40;85.00;;;;;;5023567;28;20643;-76
2023/11/27 01:21:18;;;;;;;7.60;4.20;;;3.50;85.00;;;;;;5031212;28;20488;-76
2023/11/27 01:23:44;;;;;;;9.00;4.33;;;3.50;84.90;;;;;;5022276;28;20455;-77
2023/11/27 01:26:09;;;;;;;10.30;4.87;;;3.50;84.40;;;;;;5017794;28;20252;-75
2023/11/27 01:28:36;;;;;;;6.47;4.40;;;3.50;84.30;;;;;;5024938;28;20436;-74
2023/11/27 01:31:03;;;;;;;6.50;3.70;;;3.50;84.30;;;;;;5015444;28;20285;-77
2023/11/27 01:33:29;;;;;;;5.22;4.05;;;3.40;84.40;;;;;;5020498;28;21053;-76
2023/11/27 01:35:55;;;;;;;5.70;4.10;;;3.40;84.30;;;;;;5015296;28;20194;-77
2023/11/27 01:38:20;;;;;;;7.37;4.63;;;3.40;84.30;;;;;;5021068;28;20754;-76
2023/11/27 01:40:46;;;;;;;7.50;4.57;;;3.40;84.30;;;;;;5019310;28;20281;-78
2023/11/27 01:43:14;;;;;;;6.77;4.53;;;3.40;84.40;;;;;;5025720;28;20241;-78
2023/11/27 01:45:39;;;;;;;10.80;3.83;;;3.40;84.30;;;;;;5031383;28;20531;-78
2023/11/27 01:48:05;;;;;;;6.47;4.00;;;3.50;84.30;;;;;;5027445;28;20684;-75
2023/11/27 01:50:33;;;;;;;8.13;4.50;;;3.50;84.10;;;;;;5023092;28;20231;-76
2023/11/27 01:52:59;;;;;;;6.77;4.00;;;3.60;83.80;;;;;;5024106;28;20510;-77
2023/11/27 01:55:26;;;;;;;5.80;3.83;;;3.60;83.60;;;;;;5022589;28;20471;-77
2023/11/27 01:57:52;;;;;;;6.10;4.10;;;3.50;83.60;;;;;;5027082;28;20463;-77
2023/11/27 02:00:19;;;;;;;20.63;4.10;;;3.40;83.60;;;;;;5020699;28;20832;-77
2023/11/27 02:02:49;;;;;;;8.50;3.57;;;3.40;83.70;;;;;;5026026;28;20450;-76
2023/11/27 02:05:15;;;;;;;5.23;3.50;;;3.30;83.80;;;;;;5031053;28;20421;-77
2023/11/27 02:07:42;;;;;;;9.23;5.28;;;3.30;84.00;;;;;;5031338;28;20518;-77
2023/11/27 02:10:08;;;;;;;5.60;3.50;;;3.20;84.10;;;;;;5015713;28;20220;-77
2023/11/27 02:12:34;;;;;;;7.03;3.65;;;3.20;84.10;;;;;;5016474;28;20440;-77
2023/11/27 02:14:59;;;;;;;6.00;3.90;;;3.20;84.10;;;;;;5028565;28;20180;-77
2023/11/27 02:17:25;;;;;;;8.80;3.63;;;3.20;84.00;;;;;;5021947;28;20220;-77
2023/11/27 02:19:50;;;;;;;8.00;3.73;;;3.10;84.10;;;;;;5021459;28;20209;-77
2023/11/27 02:22:16;;;;;;;8.87;4.10;;;3.20;84.30;;;;;;5023079;28;20177;-77
2023/11/27 02:24:42;;;;;;;9.67;4.80;;;3.20;84.30;;;;;;5020444;28;20188;-77
2023/11/27 02:27:08;;;;;;;6.60;4.18;;;3.20;84.30;;;;;;5021007;28;20264;-77
2023/11/27 02:29:34;;;;;;;5.20;3.33;;;3.30;84.30;;;;;;5020785;28;20336;-77
2023/11/27 02:32:03;;;;;;;5.93;3.07;;;3.40;83.70;;;;;;5022701;28;20420;-77
2023/11/27 02:34:28;;;;;;;5.13;2.93;;;3.50;83.60;;;;;;5022210;28;20182;-78
2023/11/27 02:36:54;;;;;;;4.60;2.97;;;3.50;82.70;;;;;;5018334;28;20803;-77
2023/11/27 02:39:21;;;;;;;3.77;2.90;;;3.40;82.40;;;;;;5021863;28;20587;-77
2023/11/27 02:41:47;;;;;;;4.33;2.90;;;3.40;82.50;;;;;;5024418;28;20428;-77
2023/11/27 02:44:14;;;;;;;7.33;3.90;;;3.30;82.40;;;;;;5023385;28;20456;-78
2023/11/27 02:46:41;;;;;;;8.00;3.03;;;3.40;82.50;;;;;;5023256;28;20904;-77
2023/11/27 02:49:07;;;;;;;9.73;2.83;;;3.40;82.70;;;;;;5025253;28;20511;-77
2023/11/27 02:51:39;;;;;;;6.27;3.07;;;3.40;82.50;;;;;;5023107;28;20466;-77
2023/11/27 02:54:04;;;;;;;4.38;3.10;;;3.40;82.50;;;;;;5039290;28;20447;-76
2023/11/27 02:56:30;;;;;;;5.77;3.43;;;3.40;82.50;;;;;;5030861;28;20208;-76
2023/11/27 02:58:56;;;;;;;8.60;3.03;;;3.40;82.40;;;;;;5016199;28;20338;-75
2023/11/27 03:01:26;;;;;;;5.30;2.83;;;3.50;82.40;;;;;;5024168;28;20193;-76
2023/11/27 03:03:52;;;;;;;5.28;2.80;;;3.50;82.10;;;;;;5015652;28;20189;-76
2023/11/27 03:06:18;;;;;;;4.50;3.00;;;3.50;82.10;;;;;;5020210;28;20225;-76
2023/11/27 03:08:43;;;;;;;6.67;2.83;;;3.50;81.80;;;;;;5015668;28;20811;-76
2023/11/27 03:11:11;;;;;;;5.33;3.20;;;3.50;81.90;;;;;;5022120;28;20457;-76
2023/11/27 03:13:37;;;;;;;6.53;3.67;;;3.50;81.90;;;;;;5015731;28;20189;-76
2023/11/27 03:16:03;;;;;;;5.83;3.13;;;3.60;81.80;;;;;;5024814;28;20441;-75
2023/11/27 03:18:28;;;;;;;5.23;2.77;;;3.60;81.70;;;;;;5016761;28;20248;-75
2023/11/27 03:20:54;;;;;;;4.60;2.87;;;3.60;81.50;;;;;;5021977;28;20957;-76
2023/11/27 03:23:20;;;;;;;4.97;2.90;;;3.60;81.70;;;;;;5015233;28;20221;-77
2023/11/27 03:25:45;;;;;;;3.80;2.77;;;3.60;81.70;;;;;;5026605;28;20525;-78
2023/11/27 03:28:11;;;;;;;6.23;3.23;;;3.50;81.70;;;;;;5022983;28;20223;-77
2023/11/27 03:30:37;;;;;;;5.23;3.23;;;3.60;81.90;;;;;;5029106;28;20197;-76
2023/11/27 03:33:02;;;;;;;6.97;3.63;;;3.70;81.70;;;;;;5027281;28;20243;-77
2023/11/27 03:35:28;;;;;;;5.40;2.70;;;3.70;81.70;;;;;;5026668;28;20415;-77
2023/11/27 03:37:53;;;;;;;4.90;3.07;;;3.80;81.50;;;;;;5018123;28;20713;-77
2023/11/27 03:40:19;;;;;;;4.80;3.27;;;3.80;81.40;;;;;;5026373;28;20236;-78
2023/11/27 03:42:45;;;;;;;4.93;2.77;;;3.80;81.50;;;;;;5027109;28;20193;-81
2023/11/27 03:45:11;;;;;;;5.47;2.50;;;3.90;81.20;;;;;;5036076;28;20251;-79
2023/11/27 03:47:38;;;;;;;5.67;2.90;;;3.80;81.10;;;;;;5029730;28;20220;-78
2023/11/27 03:50:04;;;;;;;4.03;2.90;;;3.90;81.20;;;;;;5018772;28;20456;-78
2023/11/27 03:52:30;;;;;;;6.50;3.00;;;4.00;81.20;;;;;;5020180;28;20812;-77
2023/11/27 03:54:55;;;;;;;3.70;2.70;;;4.00;81.10;;;;;;5031809;28;20485;-77
2023/11/27 03:57:21;;;;;;;4.40;3.07;;;4.10;80.60;;;;;;5027547;28;20213;-79
2023/11/27 03:59:48;;;;;;;5.67;3.10;;;4.10;80.30;;;;;;5028459;28;20324;-78
2023/11/27 04:02:13;;;;;;;5.30;2.93;;;4.00;80.30;;;;;;5029493;28;20189;-79
2023/11/27 04:04:39;;;;;;;9.10;3.53;;;3.90;80.30;;;;;;5025464;28;20826;-78
2023/11/27 04:07:05;;;;;;;4.47;3.10;;;3.90;80.60;;;;;;5029181;28;20339;-78
2023/11/27 04:09:31;;;;;;;3.80;2.73;;;3.90;80.90;;;;;;5026121;28;20212;-78
2023/11/27 04:11:57;;;;;;;5.33;2.80;;;3.90;80.90;;;;;;5028264;28;20424;-78
2023/11/27 04:14:24;;;;;;;8.70;2.63;;;3.90;80.90;;;;;;5026755;28;20816;-77
2023/11/27 04:16:49;;;;;;;5.43;2.30;;;4.00;81.10;;;;;;5027744;28;20467;-77
2023/11/27 04:19:15;;;;;;;7.30;2.80;;;4.00;81.10;;;;;;5029813;28;20416;-78
2023/11/27 04:21:41;;;;;;;7.00;2.80;;;4.10;80.80;;;;;;5028580;28;20220;-79
2023/11/27 04:24:07;;;;;;;5.03;3.00;;;4.10;80.60;;;;;;5027764;28;20217;-78
2023/11/27 04:26:33;;;;;;;6.10;2.80;;;4.10;80.50;;;;;;5024510;28;20471;-79
2023/11/27 04:28:59;;;;;;;3.20;2.20;;;4.10;80.30;;;;;;5027867;28;20189;-78
2023/11/27 04:31:24;;;;;;;4.80;2.83;;;4.10;79.60;;;;;;5026160;28;20181;-77
2023/11/27 04:33:50;;;;;;;4.90;2.60;;;4.10;78.70;;;;;;5022142;28;20421;-78
2023/11/27 04:36:18;;;;;;;3.33;2.20;;;3.90;79.00;;;;;;5031697;28;20767;-78
2023/11/27 04:38:44;;;;;;;6.50;2.70;;;3.90;79.30;;;;;;5024688;28;20231;-79
2023/11/27 04:41:10;;;;;;;8.43;3.10;;;3.80;79.50;;;;;;5025427;28;20474;-76
2023/11/27 04:43:36;;;;;;;4.07;2.87;;;3.80;79.60;;;;;;5026309;28;20440;-76
2023/11/27 04:46:01;;;;;;;5.00;2.93;;;3.70;79.90;;;;;;5031098;28;20197;-77
2023/11/27 04:48:27;;;;;;;3.60;2.57;;;3.70;80.00;;;;;;5031181;28;20200;-77
2023/11/27 04:50:52;;;;;;;4.90;2.70;;;3.70;80.50;;;;;;5032114;28;20217;-77
2023/11/27 04:53:18;;;;;;;6.80;2.70;;;3.70;80.90;;;;;;5026219;28;20197;-77
2023/11/27 04:55:44;;;;;;;3.50;2.40;;;3.70;80.90;;;;;;5022760;28;20178;-77
2023/11/27 04:58:09;;;;;;;3.33;2.60;;;3.80;80.90;;;;;;5023695;28;20230;-76
2023/11/27 05:00:35;;;;;;;7.50;3.40;;;3.90;80.80;;;;;;5017667;28;20237;-77
2023/11/27 05:03:00;;;;;;;4.33;3.20;;;4.00;80.30;;;;;;5023608;28;20280;-78
2023/11/27 05:05:26;;;;;;;5.40;2.90;;;4.00;80.00;;;;;;5024962;28;20185;-77
2023/11/27 05:07:51;;;;;;;5.53;3.30;;;3.90;79.70;;;;;;5023975;28;20216;-77
2023/11/27 05:10:17;;;;;;;3.67;2.67;;;3.90;80.00;;;;;;5019916;28;20263;-77
2023/11/27 05:12:43;;;;;;;4.90;2.73;;;3.90;80.30;;;;;;5029936;28;20207;-78
2023/11/27 05:15:09;;;;;;;5.20;2.60;;;3.90;80.30;;;;;;5026188;28;20665;-77
2023/11/27 05:17:34;;;;;;;6.97;2.90;;;4.00;80.20;;;;;;5023626;28;20212;-77
2023/11/27 05:20:00;;;;;;;4.80;2.40;;;3.90;78.30;;;;;;5020853;28;20491;-77
2023/11/27 05:22:26;;;;;;;3.43;2.20;;;3.90;78.30;;;;;;5023443;28;20184;-76
2023/11/27 05:24:52;;;;;;;6.53;3.03;;;3.80;78.10;;;;;;5023991;28;20416;-77
2023/11/27 05:27:18;;;;;;;5.73;3.20;;;3.70;78.30;;;;;;5021935;28;20246;-75
2023/11/27 05:29:43;;;;;;;4.70;2.80;;;3.80;78.40;;;;;;5017724;28;20207;-77
2023/11/27 05:32:09;;;;;;;3.20;2.53;;;3.70;78.30;;;;;;5027035;28;20860;-77
2023/11/27 05:34:36;;;;;;;4.40;2.93;;;3.70;78.30;;;;;;5021170;28;20185;-77
2023/11/27 05:37:02;;;;;;;5.13;2.77;;;3.70;78.60;;;;;;5023700;28;20755;-76
2023/11/27 05:39:29;;;;;;;3.50;2.40;;;3.70;78.90;;;;;;5013528;28;20992;-76
2023/11/27 05:41:57;;;;;;;4.40;2.67;;;3.70;78.90;;;;;;5026519;28;20516;-78
2023/11/27 05:44:24;;;;;;;5.53;3.00;;;3.70;78.90;;;;;;5019053;28;20416;-79
2023/11/27 05:46:49;;;;;;;4.70;2.93;;;3.70;78.70;;;;;;5024839;28;20503;-77
2023/11/27 05:49:15;;;;;;;4.80;2.70;;;3.60;79.00;;;;;;5018033;28;21131;-77
2023/11/27 05:51:41;;;;;;;5.33;2.80;;;3.60;79.00;;;;;;5024983;28;20185;-77
2023/11/27 05:54:09;;;;;;;4.87;2.77;;;3.70;79.30;;;;;;5018512;28;20202;-76
2023/11/27 05:56:34;;;;;;;5.57;3.00;;;3.60;79.50;;;;;;5023463;28;20466;-75
2023/11/27 05:59:00;;;;;;;4.60;2.67;;;3.50;79.90;;;;;;5024869;28;20428;-77
2023/11/27 06:01:25;;;;;;;4.70;2.60;;;3.50;80.00;;;;;;5021249;28;20942;-77
2023/11/27 06:03:51;;;;;;;7.80;2.67;;;3.40;79.90;;;;;;5028115;28;20253;-77
2023/11/27 06:06:17;;;;;;;6.03;3.23;;;3.50;79.90;;;;;;5032044;28;20196;-76
2023/11/27 06:08:43;;;;;;;5.97;2.63;;;3.50;79.70;;;;;;5025119;28;20178;-77
2023/11/27 06:11:10;;;;;;;7.53;2.77;;;3.50;79.70;;;;;;5024244;28;20209;-77
2023/11/27 06:13:36;;;;;;;3.80;2.93;;;3.50;79.90;;;;;;5031336;28;20524;-78
2023/11/27 06:16:03;;;;;;;5.10;2.80;;;3.50;79.90;;;;;;5045534;28;20412;-79
2023/11/27 06:18:28;;;;;;;4.50;2.73;;;3.50;79.70;;;;;;5035260;28;20205;-78
2023/11/27 06:20:54;;;;;;;5.07;3.30;;;3.50;79.90;;;;;;5018389;28;20460;-78
2023/11/27 06:23:19;;;;;;;4.97;3.17;;;3.50;79.90;;;;;;5026478;28;20177;-80
2023/11/27 06:25:46;;;;;;;5.20;3.00;;;3.50;80.00;;;;;;5022013;28;20177;-79
2023/11/27 06:28:13;;;;;;;5.83;3.20;;;3.50;79.70;;;;;;5025994;28;20186;-79
2023/11/27 06:30:39;;;;;;;10.50;4.00;;;3.50;79.90;;;;;;5024336;28;20488;-79
2023/11/27 06:33:05;;;;;;;5.43;3.20;;;3.50;80.20;;;;;;5030475;28;20428;-81
2023/11/27 06:35:32;;;;;;;7.37;3.30;;;3.50;80.30;;;;;;5027453;28;20413;-80
2023/11/27 06:37:57;;;;;;;7.90;3.40;;;3.40;80.20;;;;;;5032065;28;20213;-78
2023/11/27 06:40:24;;;;;;;6.50;3.20;;;3.50;80.30;;;;;;5031526;28;20473;-82
2023/11/27 06:42:50;;;;;;;6.13;3.33;;;3.50;80.20;;;;;;5033380;28;20174;-80
2023/11/27 06:45:16;;;;;;;5.17;3.10;;;3.50;80.00;;;;;;5032742;28;20484;-79
2023/11/27 06:47:42;;;;;;;6.40;4.23;;;3.50;80.30;;;;;;5034802;28;20432;-81
2023/11/27 06:50:08;;;;;;;8.60;3.70;;;3.50;80.50;;;;;;5038095;28;20495;-78
2023/11/27 06:52:33;;;;;;;9.40;4.47;;;3.50;80.50;;;;;;5042806;28;20272;-78
2023/11/27 06:54:59;;;;;;;5.97;3.47;;;3.50;80.60;;;;;;5019554;28;20197;-79
2023/11/27 06:57:25;;;;;;;5.40;3.63;;;3.50;80.30;;;;;;5041140;28;20205;-81
2023/11/27 06:59:52;;;;;;;6.03;4.00;;;3.50;80.60;;;;;;5021571;28;20452;-81
2023/11/27 07:02:26;;;;;;;6.90;3.83;;;3.60;80.50;;;;;;5029275;28;20185;-80
2023/11/27 07:04:51;;;;;;;7.90;3.90;;;3.70;80.30;;;;;;5034070;28;20396;-81
2023/11/27 07:07:17;;;;;;;7.17;4.10;;;3.70;80.20;;;;;;5042744;28;20511;-78
2023/11/27 07:09:43;;;;;;;9.80;4.00;;;3.70;79.70;;;;;;5037632;28;20491;-81
2023/11/27 07:12:08;;;;;;;8.77;4.10;;;3.70;80.00;;;;;;5037491;28;20216;-80
2023/11/27 07:14:34;;;;;;;7.63;3.97;;;3.70;79.90;;;;;;5036755;28;20192;-79
2023/11/27 07:17:02;;;;;;;6.77;3.90;;;3.80;79.20;;;;;;5038541;28;20210;-79
2023/11/27 07:19:29;;;;;;;8.00;3.50;;;3.80;78.70;;;;;;5039477;28;20213;-80
2023/11/27 07:21:55;;;;;;;9.83;5.23;;;3.80;78.90;;;;;;5030738;28;20429;-81
2023/11/27 07:24:20;;;;;;;8.40;3.87;;;3.80;78.70;;;;;;5035255;28;20420;-80
2023/11/27 07:26:47;;;;;;;10.50;4.37;;;3.90;78.40;;;;;;5043953;28;20189;-80
2023/11/27 07:29:13;;;;;;;10.03;4.07;;;3.90;78.40;;;;;;5034420;28;20731;-79
2023/11/27 07:31:39;;;;;;;7.53;4.40;;;3.90;78.60;;;;;;5031386;28;20429;-78
2023/11/27 07:34:05;;;;;;;7.63;4.73;;;3.90;78.30;;;;;;5037093;28;20189;-80
2023/11/27 07:36:31;;;;;;;5.57;3.23;;;4.00;78.10;;;;;;5032473;28;20196;-80
2023/11/27 07:38:58;;;;;;;10.73;4.27;;;4.10;78.10;;;;;;5037289;28;20496;-80
2023/11/27 07:41:25;;;;;;;9.73;4.37;;;4.10;77.80;;;;;;5027842;28;20439;-81
2023/11/27 07:43:51;;;;;;;8.20;3.90;;;4.10;77.30;;;;;;5047253;28;20423;-82
2023/11/27 07:46:17;;;;;;;5.23;3.37;;;4.10;77.60;;;;;;5039368;28;20623;-79
2023/11/27 07:48:43;;;;;;;8.03;4.30;;;4.10;77.10;;;;;;5037270;28;20528;-79
2023/11/27 07:51:09;;;;;;;8.40;4.17;;;4.20;76.80;;;;;;5039709;28;20218;-80
2023/11/27 07:53:36;;;;;;;8.07;3.70;;;4.20;76.80;;;;;;5039080;28;20209;-80
2023/11/27 07:56:03;;;;;;;12.20;4.30;;;4.20;77.10;;;;;;5042784;28;20442;-81
2023/11/27 07:58:28;;;;;;;6.83;3.70;;;4.30;77.10;;;;;;5037454;28;20690;-81
2023/11/27 08:00:54;;;;;;;12.37;4.10;;;4.40;76.40;;;;;;5033417;28;20485;-80
2023/11/27 08:03:21;;;;;;;5.50;3.07;;;4.50;75.40;;;;;;5039403;28;20256;-81
2023/11/27 08:05:47;;;;;;;4.80;3.50;;;4.50;75.70;;;;;;5049518;28;20428;-81
2023/11/27 08:08:17;;;;;;;8.80;4.67;;;4.50;75.50;;;;;;5048512;28;20433;-79
2023/11/27 08:10:45;;;;;;;7.47;3.80;;;4.50;75.80;;;;;;5042090;28;20462;-82
2023/11/27 08:13:11;;;;;;;13.40;5.00;;;4.50;75.70;;;;;;5037925;28;20491;-80
2023/11/27 08:15:42;;;;;;;7.43;4.30;;;4.50;75.70;;;;;;5041806;28;20434;-81
2023/11/27 08:18:11;;;;;;;8.73;4.23;;;4.50;75.10;;;;;;5041334;28;20467;-81
2023/11/27 08:20:38;;;;;;;7.20;3.80;;;4.50;75.40;;;;;;5035193;28;20515;-81
2023/11/27 08:23:04;;;;;;;8.50;4.23;;;4.50;75.40;;;;;;5036361;28;20428;-79
2023/11/27 08:25:31;;;;;;;7.87;4.30;;;4.40;75.40;;;;;;5049228;28;20423;-81
2023/11/27 08:27:57;;;;;;;8.00;3.90;;;4.40;75.40;;;;;;5042906;28;20427;-80
2023/11/27 08:30:24;;;;;;;7.67;4.23;;;4.40;75.40;;;;;;5029038;28;20475;-81
2023/11/27 08:32:51;;;;;;;7.90;4.80;;;4.40;75.20;;;;;;5030119;28;20431;-82
2023/11/27 08:35:18;;;;;;;11.53;4.13;;;4.30;75.10;;;;;;5035211;28;20417;-81
2023/11/27 08:37:44;;;;;;;8.10;4.20;;;4.30;75.80;;;;;;5031412;28;20464;-80
2023/11/27 08:40:18;;;;;;;8.50;4.30;;;4.30;75.90;;;;;;5036096;28;21011;-82
2023/11/27 08:42:44;;;;;;;11.13;4.70;;;4.40;75.90;;;;;;5040112;28;20275;-82
2023/11/27 08:45:16;;;;;;;11.10;4.50;;;4.40;75.80;;;;;;5034769;28;20462;-81
2023/11/27 08:47:50;;;;;;;6.90;4.07;;;4.50;75.40;;;;;;5034431;28;20193;-82
2023/11/27 08:50:18;;;;;;;8.00;4.17;;;4.50;75.40;;;;;;5034670;28;20491;-80
2023/11/27 08:52:45;;;;;;;9.33;4.50;;;4.50;74.90;;;;;;5037063;28;20468;-83
2023/11/27 08:55:18;;;;;;;11.67;4.17;;;4.50;74.30;;;;;;5043137;28;20466;-81
2023/11/27 08:57:48;;;;;;;10.50;4.87;;;4.50;74.30;;;;;;5040520;28;20479;-82
2023/11/27 09:00:17;;;;;;;7.30;3.70;;;4.50;73.70;;;;;;5041129;28;20516;-82
2023/11/27 09:02:46;;;;;;;6.67;3.80;;;4.50;73.90;;;;;;5029358;28;20447;-84
2023/11/27 09:05:12;;;;;;;5.17;3.10;;;4.50;73.70;;;;;;5038828;28;20421;-82
2023/11/27 09:07:41;;;;;;;9.00;3.60;;;4.50;73.70;;;;;;5046217;28;20488;-80
2023/11/27 09:10:07;;;;;;;8.13;4.50;;;4.50;74.30;;;;;;5048958;28;20467;-82
2023/11/27 09:12:33;;;;;;;5.07;2.33;;;4.50;74.90;;;;;;5046269;28;20515;-82
2023/11/27 09:14:59;;;;;;;7.27;3.60;;;4.50;74.80;;;;;;5042799;28;20425;-81
2023/11/27 09:17:25;;;;;;;9.30;4.20;;;4.50;74.80;;;;;;5047947;28;20223;-80
2023/11/27 09:19:51;;;;;;;7.17;3.83;;;4.60;74.80;;;;;;5049530;28;20456;-82
2023/11/27 09:22:21;;;;;;;6.47;3.30;;;4.60;74.50;;;;;;5045902;28;20189;-81
2023/11/27 09:24:48;;;;;;;8.10;3.60;;;4.60;74.60;;;;;;5039989;28;20186;-80
2023/11/27 09:27:14;;;;;;;7.40;4.30;;;4.60;74.60;;;;;;5048633;28;20427;-80
2023/11/27 09:29:40;;;;;;;6.23;4.47;;;4.70;74.30;;;;;;5040942;28;20452;-81
2023/11/27 09:32:06;;;;;;;6.83;3.90;;;4.80;73.70;;;;;;5040511;28;20986;-82
2023/11/27 09:34:32;;;;;;;9.03;3.73;;;4.90;73.20;;;;;;5037131;28;20719;-80
2023/11/27 09:36:58;;;;;;;6.10;3.37;;;5.00;72.40;;;;;;5044943;28;20411;-80
2023/11/27 09:39:27;;;;;;;8.23;3.70;;;5.00;71.60;;;;;;5049421;28;20440;-80
2023/11/27 09:41:56;;;;;;;5.50;3.30;;;5.00;71.60;;;;;;5032561;28;20182;-81
2023/11/27 09:44:21;;;;;;;6.43;3.57;;;5.10;71.70;;;;;;5035453;28;20481;-81
2023/11/27 09:46:47;;;;;;;7.70;3.77;;;5.10;71.70;;;;;;5038614;28;20432;-80
2023/11/27 09:49:24;;;;;;;9.37;4.20;;;5.20;71.30;;;;;;5031517;28;20649;-82
2023/11/27 09:51:58;;;;;;;8.77;4.30;;;5.20;71.40;;;;;;5029656;28;20436;-82
2023/11/27 09:54:28;;;;;;;6.30;3.50;;;5.20;71.40;;;;;;5040807;28;20438;-82
2023/11/27 09:56:56;;;;;;;4.77;2.80;;;5.30;71.10;;;;;;5035195;28;20468;-79
2023/11/27 09:59:24;;;;;;;5.43;3.53;;;5.40;71.00;;;;;;5038349;28;20424;-80
2023/11/27 10:01:50;;;;;;;9.00;3.40;;;5.40;70.50;;;;;;5042073;28;20427;-81
2023/11/27 10:04:17;;;;;;;9.57;3.60;;;5.40;70.40;;;;;;5029152;28;20512;-81
2023/11/27 10:06:43;;;;;;;6.13;3.53;;;5.40;70.10;;;;;;5023276;28;20182;-83
2023/11/27 10:09:13;;;;;;;10.80;3.50;;;5.40;70.20;;;;;;5028556;28;20429;-82
2023/11/27 10:11:50;;;;;;;8.23;3.73;;;5.50;70.40;;;;;;5038207;28;20452;-81
2023/11/27 10:14:19;;;;;;;7.80;4.30;;;5.60;70.20;;;;;;5042426;28;20427;-80
2023/11/27 10:16:49;;;;;;;5.67;2.77;;;5.70;70.40;;;;;;5037624;28;20524;-81
2023/11/27 10:19:19;;;;;;;6.43;2.80;;;5.80;69.20;;;;;;5040657;28;20443;-81
2023/11/27 10:21:48;;;;;;;5.83;3.37;;;5.80;68.60;;;;;;5035384;28;20434;-80
2023/11/27 10:24:16;;;;;;;4.63;3.30;;;5.80;68.60;;;;;;5033914;28;20459;-81
2023/11/27 10:26:44;;;;;;;3.50;2.33;;;5.90;68.80;;;;;;5032090;28;20424;-81
2023/11/27 10:29:25;;;;;;;4.10;2.70;;;5.90;68.60;;;;;;5041600;28;20432;-80
2023/11/27 10:31:58;;;;;;;6.70;3.00;;;5.80;68.50;;;;;;5045785;28;20882;-81
2023/11/27 10:34:32;;;;;;;5.57;3.20;;;5.80;68.60;;;;;;5042336;28;20456;-81
2023/11/27 10:37:00;;;;;;;4.40;2.77;;;5.80;68.80;;;;;;5040198;28;20480;-82
2023/11/27 10:39:33;;;;;;;5.73;2.90;;;5.90;68.90;;;;;;5037165;28;20482;-82
2023/11/27 10:42:02;;;;;;;3.40;2.30;;;5.80;68.60;;;;;;5043311;28;20515;-79
2023/11/27 10:44:39;;;;;;;5.37;3.13;;;5.80;68.60;;;;;;5038693;28;20463;-81
2023/11/27 10:47:07;;;;;;;5.60;3.10;;;5.80;68.80;;;;;;5031177;28;20421;-80
2023/11/27 10:49:37;;;;;;;4.37;2.80;;;5.70;68.90;;;;;;5023146;28;20456;-81
2023/11/27 10:52:14;;;;;;;7.70;2.27;;;5.70;68.60;;;;;;5031458;28;20467;-80
2023/11/27 10:54:41;;;;;;;4.83;2.50;;;5.70;68.20;;;;;;5027188;28;20935;-80
2023/11/27 10:57:08;;;;;;;5.13;2.63;;;5.60;68.30;;;;;;5029118;28;20469;-80
2023/11/27 10:59:42;;;;;;;6.27;2.50;;;5.70;68.50;;;;;;5037702;28;20976;-82
2023/11/27 11:02:11;;;;;;;6.97;2.87;;;5.70;68.50;;;;;;5035013;28;20475;-80
2023/11/27 11:04:45;;;;;;;4.53;2.70;;;5.80;68.80;;;;;;5039718;28;20424;-79
2023/11/27 11:07:22;;;;;;;6.83;3.20;;;5.90;68.30;;;;;;5028548;28;20420;-80
2023/11/27 11:09:55;;;;;;;2.97;2.20;;;5.90;68.50;;;;;;5032849;28;20845;-79
2023/11/27 11:12:23;;;;;;;9.73;3.07;;;6.00;68.20;;;;;;5033672;28;20417;-81
2023/11/27 11:14:55;;;;;;;6.73;3.10;;;6.10;68.20;;;;;;5047407;28;20427;-80
2023/11/27 11:17:54;;;;;;;7.17;2.50;;;6.10;68.20;;;;;;5046032;28;20943;-82
2023/11/27 11:20:42;;;;;;;5.73;3.20;;;6.00;67.90;;;;;;5038983;28;20439;-81
2023/11/27 11:23:32;;;;;;;6.87;2.93;;;6.00;68.30;;;;;;5036729;28;20467;-80
2023/11/27 11:26:32;;;;;;;3.40;2.27;;;6.10;68.50;;;;;;5014548;28;20425;-80
2023/11/27 11:29:14;;;;;;;5.13;2.77;;;6.10;68.20;;;;;;5011014;28;20437;-82
2023/11/27 11:31:59;;;;;;;6.17;3.03;;;6.00;68.00;;;;;;5014129;28;20555;-81
2023/11/27 11:34:38;;;;;;;6.60;3.10;;;6.00;68.30;;;;;;5014567;28;20575;-81
2023/11/27 11:37:07;;;;;;;5.43;3.13;;;6.00;68.30;;;;;;5021370;28;20568;-80
2023/11/27 11:39:34;;;;;;;5.20;2.50;;;6.00;68.50;;;;;;5019880;28;20997;-81
2023/11/27 11:42:04;;;;;;;4.97;3.00;;;6.00;68.50;;;;;;5012698;28;20463;-80
2023/11/27 11:44:35;;;;;;;7.20;2.77;;;6.00;68.60;;;;;;5014648;28;20429;-81
2023/11/27 11:47:31;;;;;;;6.03;3.30;;;6.00;68.50;;;;;;5025008;28;20488;-78
2023/11/27 11:50:25;;;;;;;3.93;2.73;;;6.00;68.50;;;;;;5022721;28;20514;-80
2023/11/27 11:52:53;;;;;;;6.17;3.07;;;6.10;68.60;;;;;;5018674;28;20445;-79
2023/11/27 11:55:30;;;;;;;3.53;2.30;;;6.10;68.30;;;;;;5010091;28;20424;-81
2023/11/27 11:58:02;;;;;;;5.77;2.93;;;6.10;68.60;;;;;;5030107;28;20977;-81
2023/11/27 12:00:42;;;;;;;8.67;2.90;;;6.10;68.30;;;;;;5032886;28;20478;-80
2023/11/27 12:03:15;;;;;;;6.20;2.63;;;6.10;68.30;;;;;;5034332;28;20436;-81
2023/11/27 12:05:51;;;;;;;3.83;2.50;;;6.10;68.00;;;;;;5041838;28;20424;-82
2023/11/27 12:08:18;;;;;;;3.43;2.17;;;6.00;68.30;;;;;;5042254;28;20424;-82
2023/11/27 12:10:45;;;;;;;2.87;2.00;;;6.10;68.20;;;;;;5045109;28;20456;-80
2023/11/27 12:13:11;;;;;;;4.40;2.17;;;6.00;68.00;;;;;;5048204;28;20409;-79
2023/11/27 12:15:37;;;;;;;3.00;2.10;;;6.10;68.20;;;;;;5046864;28;20456;-80
2023/11/27 12:18:09;;;;;;;4.20;1.90;;;6.10;68.20;;;;;;5042314;28;20527;-78
2023/11/27 12:20:42;;;;;;;3.40;1.47;;;6.10;68.20;;;;;;5045308;28;20466;-81
2023/11/27 12:23:14;;;;;;;7.20;3.80;;;6.00;68.20;;;;;;5044852;28;20471;-78
2023/11/27 12:25:43;;;;;;;2.87;1.50;;;6.00;68.50;;;;;;5049467;28;20588;-79
2023/11/27 12:28:13;;;;;;;4.40;1.83;;;6.00;68.30;;;;;;5039017;28;20448;-81
2023/11/27 12:30:40;;;;;;;7.63;2.30;;;5.90;68.30;;;;;;5030577;28;20584;-80
2023/11/27 12:33:07;;;;;;;3.93;1.97;;;5.90;68.80;;;;;;5038849;28;20583;-81
2023/11/27 12:35:34;;;;;;;5.03;1.70;;;6.00;68.90;;;;;;5035721;28;20423;-80
2023/11/27 12:38:05;;;;;;;2.03;1.40;;;6.10;68.90;;;;;;5040763;28;20468;-79
2023/11/27 12:40:34;;;;;;;3.70;1.43;;;5.90;68.60;;;;;;5033938;28;20529;-79
2023/11/27 12:43:04;;;;;;;3.50;1.60;;;5.90;69.20;;;;;;5037837;28;20918;-80
2023/11/27 12:45:33;;;;;;;2.50;1.20;;;5.90;69.20;;;;;;5033637;28;20416;-80
2023/11/27 12:47:58;;;;;;;1.93;1.40;;;5.90;69.40;;;;;;5038106;28;20440;-81
2023/11/27 12:50:29;;;;;;;2.90;1.90;;;5.80;69.80;;;;;;5032796;28;20482;-80
2023/11/27 12:53:03;;;;;;;1.70;1.50;;;5.80;70.20;;;;;;5034019;28;20260;-79
2023/11/27 12:55:36;;;;;;;6.10;1.60;;;5.60;70.70;;;;;;5027453;28;20429;-81
2023/11/27 12:58:12;;;;;;;2.40;1.30;;;5.60;71.30;;;;;;5035485;28;20494;-79